Aérodrome :
LOGIN :

S'inscrire | Disclaimer

   EN    FR    IT 

 










Légende :    VFR   VFR Marginal   IFR   IFR Intensif   IFR Très Intensif
Visi : 
Plafond : 
>= 8 km
>= 3000ft
5 à 8 km
1000 à 3000 ft
1500m à 5 km
500 à 1000 ft
800 à 1500m
200 à 500 ft
< 800m
< 200 ft
Symboles :   Orages  Brouillard  Fortes neiges  Fortes précipitations  Vent > 20 kt
SIGMETs :   Divers  Orages  Givrage  Turbulence  Onde Orograph.  Cendres Volcan.






- Altitude de l'aérodrome : 1411 ft
- Code IATA : GVA


LSGG - Genève Cointrin

DERNIER METAR :
  • 310750Z 05007KT 020V100 9999 FEW045 15/05 Q1017 NOSIG

METARs EXPIRÉS :
  • 310720Z 06008KT 020V090 9999 FEW070 15/06 Q1017 NOSIG
  • 310650Z 04007KT 350V070 9999 FEW070 14/05 Q1017 NOSIG
  • 310620Z VRB01KT 9999 FEW070 14/06 Q1017 NOSIG
  • 310550Z VRB01KT 9999 FEW070 13/07 Q1017 NOSIG
  • 310520Z VRB01KT 9999 FEW070 11/06 Q1017 NOSIG

TAF TAF LSGG
Valide du 31 à 06h jusqu'au 01 à 12h UTC


310525Z 3106/0112 VRB01KT 9999 FEW070 TX22/3115Z TN13/3106Z TN08/0105Z
BECMG 3107/3109 05007KT
BECMG 3118/3120 VRB01KT CAVOK
BECMG 0108/0111 05007KT
ATIS : +41 22 417 40 81



MET'MAP, la Météo Aéronautique d'un coup d'oeil ! - Copyright ORBIFLY Décembre 2007 - Disclaimer

ORBIFLY MET'MAP TEAM :

Programmation & Développement : Alexandra Zaïnal
Sur une idée originale de : Baudouin d'Aumeries
Assistance à la programmation : Marc-Olivier Méhu
Soutien technique & logistique : Manuel Goepfert

Contact : metmap@orbifly.com




SOURCES & CREDITS :

   NOAA